Time;durP1;ratioP1;P1;durP2;ratioP2;P2;SDS_P1;SDS_P2;PMS_P1;PMS_P2;Temp;Humidity;BMP_temperature;BMP_pressure;BME280_temperature;BME280_humidity;BME280_pressure;Samples;Min_cycle;Max_cycle;Signal;HPM_P1;HPM_P2
2021/12/05 00:20:39;;;;;;;3.78;3.00;;;3.10;91.50;;;;;;5022276;28;20249;-60
2021/12/05 00:23:11;;;;;;;5.32;2.38;;;3.10;91.90;;;;;;5034542;28;20281;-61
2021/12/05 00:25:42;;;;;;;2.83;2.30;;;3.10;91.50;;;;;;5034669;28;20226;-59
2021/12/05 00:28:35;;;;;;;3.72;2.70;;;3.10;91.90;;;;;;5034519;28;20210;-57
2021/12/05 00:31:18;;;;;;;3.70;2.40;;;3.20;92.00;;;;;;5033237;28;20225;-58
2021/12/05 00:39:43;;;;;;;2.90;2.47;;;3.40;90.40;;;;;;5013487;28;20206;-58
2021/12/05 00:45:36;;;;;;;3.75;2.42;;;3.40;91.20;;;;;;4992818;28;20282;-59
2021/12/05 00:56:31;;;;;;;3.95;2.90;;;3.30;90.90;;;;;;5030112;28;20194;-58
2021/12/05 00:59:15;;;;;;;6.00;3.03;;;3.30;91.00;;;;;;5034079;28;20630;-58
2021/12/05 01:04:46;;;;;;;3.20;2.97;;;3.30;91.40;;;;;;5033436;28;20230;-58
2021/12/05 01:10:13;;;;;;;2.90;2.47;;;3.30;91.40;;;;;;4995408;28;20239;-57
2021/12/05 01:13:00;;;;;;;4.45;2.45;;;3.40;91.40;;;;;;5033540;28;20206;-56
2021/12/05 01:15:30;;;;;;;5.53;2.67;;;3.50;91.10;;;;;;5033610;28;20206;-56
2021/12/05 01:18:04;;;;;;;2.85;2.65;;;3.50;90.80;;;;;;5032205;28;20252;-57
2021/12/05 01:20:35;;;;;;;3.20;2.75;;;3.60;89.90;;;;;;5033544;28;20658;-57
2021/12/05 01:23:06;;;;;;;3.50;2.70;;;3.50;90.10;;;;;;5033465;28;20198;-58
2021/12/05 01:25:42;;;;;;;3.50;2.55;;;3.40;90.20;;;;;;5033269;28;20229;-57
2021/12/05 01:28:16;;;;;;;3.05;2.60;;;3.40;90.60;;;;;;5033504;28;20206;-59
2021/12/05 01:30:51;;;;;;;4.90;3.38;;;3.30;90.10;;;;;;5033424;28;20206;-58
2021/12/05 01:33:24;;;;;;;5.35;2.30;;;3.20;90.70;;;;;;5033222;28;20205;-59
2021/12/05 01:36:05;;;;;;;3.95;2.60;;;3.20;90.90;;;;;;5032961;28;20252;-58
2021/12/05 01:38:51;;;;;;;2.42;2.33;;;3.20;91.10;;;;;;5033354;28;20206;-58
2021/12/05 01:47:44;;;;;;;2.20;2.05;;;3.30;90.50;;;;;;5150212;27;20231;-59
2021/12/05 01:50:44;;;;;;;2.95;2.22;;;3.20;90.70;;;;;;5151998;27;20197;-59
2021/12/05 01:53:32;;;;;;;3.97;2.50;;;3.10;91.10;;;;;;5151825;27;20243;-57
2021/12/05 01:59:09;;;;;;;5.55;2.50;;;3.10;91.00;;;;;;5147945;27;20190;-57
2021/12/05 02:10:45;;;;;;;3.95;2.22;;;3.40;90.50;;;;;;5151738;27;20201;-57
2021/12/05 02:32:42;;;;;;;3.60;2.40;;;3.90;87.70;;;;;;5129035;28;20198;-59
2021/12/05 02:35:28;;;;;;;3.08;2.40;;;3.80;87.80;;;;;;5130401;28;20199;-60
2021/12/05 02:38:35;;;;;;;3.28;2.40;;;3.60;88.50;;;;;;5130259;27;20209;-59
2021/12/05 02:41:15;;;;;;;3.22;2.60;;;3.40;89.40;;;;;;5130327;27;20305;-59
2021/12/05 02:43:45;;;;;;;5.03;2.55;;;3.10;90.30;;;;;;5130030;27;20239;-59
2021/12/05 02:46:14;;;;;;;3.10;2.80;;;3.00;91.00;;;;;;5128761;28;20194;-58
2021/12/05 02:48:43;;;;;;;3.83;2.25;;;2.90;91.40;;;;;;5130146;28;20199;-58
2021/12/05 02:51:19;;;;;;;4.68;2.25;;;2.90;91.70;;;;;;5129913;28;20752;-61
2021/12/05 02:53:51;;;;;;;2.40;2.20;;;2.90;91.40;;;;;;5127519;27;20203;-57
2021/12/05 02:56:20;;;;;;;2.50;2.40;;;2.80;91.50;;;;;;5116318;28;20650;-58
2021/12/05 02:58:50;;;;;;;2.97;2.10;;;2.90;91.70;;;;;;5116364;28;20227;-57
2021/12/05 03:01:24;;;;;;;4.10;2.35;;;2.90;91.30;;;;;;5114867;28;20317;-60
2021/12/05 03:03:53;;;;;;;3.65;2.60;;;2.90;91.50;;;;;;5116034;28;20237;-59
2021/12/05 03:06:22;;;;;;;2.58;2.38;;;2.80;91.20;;;;;;5116156;28;20601;-59
2021/12/05 03:08:54;;;;;;;5.13;2.20;;;2.80;91.70;;;;;;5116108;28;20195;-59
2021/12/05 03:11:23;;;;;;;5.47;2.65;;;2.80;91.50;;;;;;5116093;28;20286;-60
2021/12/05 03:13:50;;;;;;;4.32;2.63;;;2.70;91.90;;;;;;5116016;28;20552;-58
2021/12/05 03:16:19;;;;;;;4.53;2.53;;;2.70;92.20;;;;;;5114679;28;20294;-61
2021/12/05 03:18:46;;;;;;;4.15;2.40;;;2.70;92.20;;;;;;5115846;28;20282;-61
2021/12/05 03:21:15;;;;;;;3.38;2.42;;;2.70;91.90;;;;;;5115941;28;20294;-60
2021/12/05 03:23:44;;;;;;;4.03;2.88;;;2.60;92.30;;;;;;5115638;28;20237;-58
2021/12/05 03:26:15;;;;;;;3.40;3.10;;;2.70;92.50;;;;;;5115774;28;20207;-58
2021/12/05 03:28:42;;;;;;;3.00;2.50;;;2.80;92.10;;;;;;5115553;28;20195;-59
2021/12/05 03:31:10;;;;;;;5.03;2.35;;;2.80;91.70;;;;;;5114366;28;20298;-58
2021/12/05 03:33:37;;;;;;;5.50;2.60;;;2.80;91.40;;;;;;5115618;28;20282;-58
2021/12/05 03:36:06;;;;;;;3.38;2.55;;;2.90;91.20;;;;;;5115617;28;20318;-59
2021/12/05 03:38:33;;;;;;;4.18;2.97;;;3.00;90.80;;;;;;5115537;28;20203;-59
2021/12/05 03:41:00;;;;;;;3.90;2.60;;;3.00;90.70;;;;;;5115466;28;20643;-60
2021/12/05 03:43:28;;;;;;;9.27;3.45;;;3.00;90.40;;;;;;5115286;28;20326;-60
2021/12/05 03:45:58;;;;;;;6.07;2.40;;;2.90;90.40;;;;;;5114038;28;20204;-58
2021/12/05 03:48:28;;;;;;;3.00;2.75;;;2.90;90.70;;;;;;5115506;28;20210;-60
2021/12/05 03:50:56;;;;;;;2.30;2.10;;;2.90;90.30;;;;;;5115229;28;20673;-60
2021/12/05 03:53:23;;;;;;;5.70;2.58;;;2.90;90.30;;;;;;5115260;28;20199;-60
2021/12/05 03:55:54;;;;;;;2.95;2.75;;;2.80;90.50;;;;;;5115119;28;20211;-58
2021/12/05 03:58:23;;;;;;;4.03;2.60;;;2.80;90.30;;;;;;5115144;28;20307;-59
2021/12/05 04:00:56;;;;;;;4.13;2.50;;;2.80;90.30;;;;;;5114608;28;20203;-59
2021/12/05 04:03:25;;;;;;;3.10;2.90;;;2.80;90.40;;;;;;5114978;28;20223;-58
2021/12/05 04:05:52;;;;;;;2.22;2.10;;;2.80;90.30;;;;;;5113966;28;20293;-58
2021/12/05 04:08:22;;;;;;;3.05;2.67;;;2.90;90.20;;;;;;5114906;28;20210;-60
2021/12/05 04:10:52;;;;;;;2.95;2.75;;;2.90;90.10;;;;;;5114823;28;20227;-57
2021/12/05 04:13:20;;;;;;;3.38;2.58;;;3.00;89.50;;;;;;5114835;28;20230;-58
2021/12/05 04:15:50;;;;;;;4.28;2.58;;;2.90;89.50;;;;;;5114538;28;20724;-56
2021/12/05 04:18:18;;;;;;;2.97;2.55;;;2.90;89.80;;;;;;5114199;28;20294;-57
2021/12/05 04:20:46;;;;;;;3.83;2.53;;;2.90;89.90;;;;;;5114517;28;20286;-57
2021/12/05 04:23:14;;;;;;;3.95;2.40;;;2.90;90.20;;;;;;5114496;28;20322;-60
2021/12/05 04:25:42;;;;;;;4.03;2.40;;;2.70;90.40;;;;;;5114590;28;20195;-59
2021/12/05 04:28:10;;;;;;;3.00;2.25;;;2.70;91.00;;;;;;5114582;28;20294;-61
2021/12/05 04:30:37;;;;;;;2.42;2.22;;;2.70;91.20;;;;;;5114452;28;20211;-58
2021/12/05 04:33:05;;;;;;;2.90;2.58;;;2.70;91.10;;;;;;5113147;28;20294;-59
2021/12/05 04:35:34;;;;;;;2.75;2.40;;;2.80;90.80;;;;;;5114328;28;20227;-60
2021/12/05 04:38:01;;;;;;;4.05;3.10;;;2.80;90.70;;;;;;5114371;28;20278;-61
2021/12/05 04:40:28;;;;;;;3.00;2.40;;;2.90;90.40;;;;;;5114302;28;20298;-59
2021/12/05 04:42:55;;;;;;;3.10;2.80;;;2.80;90.40;;;;;;5113948;28;20266;-57
2021/12/05 04:45:24;;;;;;;3.53;2.60;;;2.90;90.60;;;;;;5114225;28;20278;-57
2021/12/05 04:47:51;;;;;;;3.45;2.50;;;2.90;90.60;;;;;;5112653;28;20658;-58
2021/12/05 04:50:19;;;;;;;3.38;2.20;;;2.90;90.40;;;;;;5114113;28;20298;-61
2021/12/05 04:52:47;;;;;;;5.00;3.20;;;2.90;90.30;;;;;;5113997;28;20213;-60
2021/12/05 04:55:15;;;;;;;2.70;2.50;;;2.70;90.50;;;;;;5114038;28;20203;-60
2021/12/05 04:57:43;;;;;;;3.65;2.50;;;2.70;91.10;;;;;;5114061;28;20201;-60
2021/12/05 05:00:15;;;;;;;7.00;2.42;;;2.60;91.40;;;;;;5114173;28;20227;-62
2021/12/05 05:02:42;;;;;;;5.13;2.13;;;2.60;91.90;;;;;;5112496;28;20287;-60
2021/12/05 05:05:11;;;;;;;3.28;2.25;;;2.50;92.40;;;;;;5113751;28;20231;-60
2021/12/05 05:07:39;;;;;;;7.45;2.70;;;2.50;92.80;;;;;;5113839;28;20208;-60
2021/12/05 05:10:11;;;;;;;3.47;3.00;;;2.50;92.80;;;;;;5113836;28;20367;-61
2021/12/05 05:12:38;;;;;;;2.60;2.20;;;2.40;93.00;;;;;;5113739;28;20199;-60
2021/12/05 05:15:07;;;;;;;3.80;2.40;;;2.30;93.30;;;;;;5113518;28;20208;-58
2021/12/05 05:17:35;;;;;;;4.40;3.10;;;2.10;93.60;;;;;;5112258;28;20200;-61
2021/12/05 05:20:09;;;;;;;2.83;2.05;;;2.00;93.80;;;;;;5113770;28;20204;-61
2021/12/05 05:22:43;;;;;;;2.90;2.25;;;1.90;94.20;;;;;;5113627;28;20207;-59
2021/12/05 05:28:26;;;;;;;3.65;2.15;;;2.00;94.40;;;;;;5113653;28;20202;-58
2021/12/05 05:39:30;;;;;;;2.55;2.22;;;2.20;93.20;;;;;;5113552;28;20669;-58
2021/12/05 05:45:00;;;;;;;2.38;2.15;;;2.20;92.80;;;;;;5113030;28;20317;-59
2021/12/05 05:47:32;;;;;;;3.95;2.10;;;2.20;92.70;;;;;;5111998;28;20205;-59
2021/12/05 05:49:59;;;;;;;2.72;2.30;;;2.30;92.60;;;;;;5113403;28;20203;-60
2021/12/05 05:52:27;;;;;;;6.43;2.75;;;2.30;92.60;;;;;;5113256;28;20207;-59
2021/12/05 05:54:57;;;;;;;4.10;2.20;;;2.20;92.50;;;;;;5113342;28;20207;-61
2021/12/05 05:57:29;;;;;;;3.30;2.25;;;2.10;92.60;;;;;;5113323;28;20199;-59
2021/12/05 06:00:04;;;;;;;2.35;2.15;;;2.10;92.90;;;;;;5113207;28;20215;-60
2021/12/05 06:05:18;;;;;;;2.28;2.08;;;2.10;93.00;;;;;;5113038;28;20234;-58
2021/12/05 06:07:46;;;;;;;3.83;2.25;;;2.10;92.80;;;;;;5113111;28;20295;-59
2021/12/05 06:10:16;;;;;;;1.65;1.55;;;2.20;92.70;;;;;;5113126;28;20207;-59
2021/12/05 06:12:44;;;;;;;4.57;2.00;;;2.10;92.70;;;;;;5112969;28;20203;-57
2021/12/05 06:15:14;;;;;;;3.00;1.73;;;2.30;92.90;;;;;;5113105;28;20203;-59
2021/12/05 06:17:41;;;;;;;5.25;2.10;;;2.30;92.50;;;;;;5111608;28;20676;-59
2021/12/05 06:20:09;;;;;;;2.47;2.28;;;2.30;92.30;;;;;;5112988;28;20203;-58
2021/12/05 06:22:36;;;;;;;2.10;1.88;;;2.30;92.10;;;;;;5112979;28;20290;-59
2021/12/05 06:25:04;;;;;;;2.72;1.85;;;2.30;92.30;;;;;;5112808;28;20716;-58
2021/12/05 06:27:31;;;;;;;4.22;2.47;;;2.30;91.90;;;;;;5112902;28;20658;-59
2021/12/05 06:30:07;;;;;;;2.88;2.03;;;2.20;91.90;;;;;;5114846;28;20195;-57
2021/12/05 06:38:10;;;;;;;2.17;1.88;;;2.10;92.80;;;;;;5116690;28;20688;-61
2021/12/05 06:46:12;;;;;;;2.15;1.95;;;1.90;93.20;;;;;;5115301;28;20668;-60
2021/12/05 06:48:40;;;;;;;2.30;2.10;;;1.90;93.20;;;;;;5116483;28;20206;-58
2021/12/05 06:51:07;;;;;;;7.43;1.90;;;1.90;93.40;;;;;;5116247;28;20207;-58
2021/12/05 06:53:34;;;;;;;3.28;2.00;;;2.00;93.30;;;;;;5116319;28;20199;-58
2021/12/05 06:56:01;;;;;;;5.40;2.60;;;2.10;93.00;;;;;;5116301;28;20290;-59
2021/12/05 06:58:28;;;;;;;2.75;2.13;;;2.10;92.60;;;;;;5116318;28;20204;-59
2021/12/05 07:00:55;;;;;;;2.53;1.65;;;2.10;92.60;;;;;;5115091;28;20275;-58
2021/12/05 07:03:23;;;;;;;4.93;2.05;;;2.10;92.40;;;;;;5116107;28;20650;-59
2021/12/05 07:05:56;;;;;;;1.88;1.75;;;2.10;92.50;;;;;;5115973;28;20290;-58
2021/12/05 07:08:26;;;;;;;7.07;2.10;;;2.20;92.50;;;;;;5116150;28;20264;-59
2021/12/05 07:10:59;;;;;;;4.03;2.42;;;2.20;92.20;;;;;;5115999;28;20654;-58
2021/12/05 07:16:30;;;;;;;3.08;2.10;;;2.30;92.10;;;;;;5114552;28;20192;-58
2021/12/05 07:19:17;;;;;;;3.22;2.40;;;2.40;91.60;;;;;;5115875;28;20545;-58
2021/12/05 07:21:48;;;;;;;4.88;2.55;;;2.50;91.50;;;;;;5115831;28;20593;-59
2021/12/05 07:24:28;;;;;;;2.70;2.50;;;2.50;90.90;;;;;;5115702;28;20231;-57
2021/12/05 07:40:46;;;;;;;2.38;1.73;;;2.60;90.40;;;;;;5115499;28;20206;-59
2021/12/05 07:43:17;;;;;;;3.95;2.10;;;2.50;90.40;;;;;;5115063;28;20295;-58
2021/12/05 07:45:50;;;;;;;3.03;1.80;;;2.40;90.90;;;;;;5115365;28;20238;-61
2021/12/05 07:48:21;;;;;;;5.43;2.50;;;2.30;91.20;;;;;;5114799;28;20199;-61
2021/12/05 07:50:57;;;;;;;2.13;1.80;;;2.20;91.80;;;;;;5115284;28;20199;-60
2021/12/05 07:53:29;;;;;;;2.17;1.58;;;2.10;92.00;;;;;;5115311;28;20203;-58
2021/12/05 07:55:57;;;;;;;3.25;2.00;;;2.20;92.00;;;;;;5115210;28;20709;-59
2021/12/05 08:01:24;;;;;;;3.92;1.90;;;2.30;91.50;;;;;;5113457;28;20199;-58
2021/12/05 08:14:56;;;;;;;3.28;2.25;;;2.60;90.80;;;;;;5114873;28;20234;-58
2021/12/05 08:17:23;;;;;;;5.57;3.30;;;2.80;90.10;;;;;;5113534;28;20290;-58
2021/12/05 08:19:50;;;;;;;5.50;2.20;;;2.90;89.20;;;;;;5114706;28;20286;-59
2021/12/05 08:22:19;;;;;;;2.40;2.20;;;3.00;89.10;;;;;;5114536;28;20644;-56
2021/12/05 08:24:48;;;;;;;2.30;2.10;;;3.00;88.90;;;;;;5114549;28;20238;-57
2021/12/05 08:27:15;;;;;;;4.45;2.10;;;3.10;88.70;;;;;;5114399;28;20366;-56
2021/12/05 08:29:46;;;;;;;2.58;2.20;;;3.20;88.50;;;;;;5114381;28;20211;-57
2021/12/05 08:32:25;;;;;;;4.15;2.20;;;3.20;87.90;;;;;;5113018;28;20203;-56
2021/12/05 08:35:18;;;;;;;1.92;1.83;;;3.20;88.00;;;;;;5114307;28;20241;-58
2021/12/05 09:08:27;;;;;;;5.65;1.95;;;3.10;88.50;;;;;;5112867;28;20203;-57
2021/12/05 09:23:00;;;;;;;2.88;2.60;;;3.00;89.00;;;;;;5113592;28;20238;-57
2021/12/05 09:26:00;;;;;;;2.85;2.45;;;3.00;89.10;;;;;;5113271;28;20230;-58
2021/12/05 09:31:29;;;;;;;2.40;2.20;;;3.00;89.00;;;;;;5088972;28;20596;-57
2021/12/05 10:02:11;;;;;;;2.60;2.28;;;4.10;85.60;;;;;;5111867;28;20206;-56
2021/12/05 10:07:39;;;;;;;2.80;2.60;;;4.00;85.10;;;;;;5117265;28;20280;-59
2021/12/05 10:10:18;;;;;;;3.13;2.92;;;3.90;85.50;;;;;;5117212;28;20307;-59
2021/12/05 10:13:02;;;;;;;3.40;3.10;;;3.90;85.60;;;;;;5117096;28;20199;-58
2021/12/05 10:15:50;;;;;;;3.08;2.85;;;4.00;86.30;;;;;;5116950;28;20676;-60
2021/12/05 10:35:37;;;;;;;5.85;3.40;;;4.80;83.50;;;;;;5116851;28;20202;-57
2021/12/05 10:38:08;;;;;;;3.65;3.45;;;4.90;81.90;;;;;;5116650;28;20567;-56
2021/12/05 10:40:41;;;;;;;4.95;3.20;;;4.80;81.50;;;;;;5116534;28;20208;-58
2021/12/05 10:43:13;;;;;;;3.40;3.30;;;4.70;82.00;;;;;;5116403;28;20329;-56
2021/12/05 10:45:42;;;;;;;4.63;4.43;;;4.60;81.40;;;;;;5116438;28;20235;-57
2021/12/05 10:48:13;;;;;;;4.00;3.70;;;4.50;80.70;;;;;;5115144;28;20205;-57
2021/12/05 10:50:44;;;;;;;4.22;3.95;;;4.50;81.80;;;;;;5116338;28;20203;-59
2021/12/05 10:53:40;;;;;;;3.97;3.67;;;4.50;81.60;;;;;;5116278;28;20206;-58
2021/12/05 10:56:20;;;;;;;3.90;3.80;;;4.50;81.60;;;;;;5116391;28;20318;-58
2021/12/05 10:58:54;;;;;;;4.22;3.60;;;4.70;81.80;;;;;;5116247;28;20675;-59
2021/12/05 11:01:28;;;;;;;3.40;3.20;;;4.80;80.70;;;;;;5114824;28;20199;-56
2021/12/05 11:03:58;;;;;;;4.40;4.20;;;5.70;80.90;;;;;;5116144;28;20205;-56
2021/12/05 11:06:44;;;;;;;5.78;5.38;;;7.00;75.70;;;;;;5115961;28;20231;-58
2021/12/05 11:09:14;;;;;;;5.68;5.13;;;8.40;72.00;;;;;;5116155;28;20207;-59
2021/12/05 11:11:44;;;;;;;4.93;4.72;;;9.20;65.90;;;;;;5116054;28;20199;-58
2021/12/05 11:14:13;;;;;;;4.47;4.28;;;9.50;64.90;;;;;;5115924;28;20203;-59
2021/12/05 11:16:44;;;;;;;5.10;4.80;;;9.80;64.10;;;;;;5114183;28;20208;-59
2021/12/05 11:19:15;;;;;;;5.70;5.32;;;9.90;66.60;;;;;;5115934;28;20199;-58
2021/12/05 11:21:49;;;;;;;5.35;5.03;;;10.40;63.60;;;;;;5115778;28;20223;-58
2021/12/05 11:24:21;;;;;;;6.00;5.70;;;10.20;62.30;;;;;;5115758;28;20200;-58
2021/12/05 11:27:07;;;;;;;5.20;5.00;;;10.00;63.20;;;;;;5115784;28;20199;-60
2021/12/05 11:29:59;;;;;;;5.75;5.50;;;9.90;62.40;;;;;;5115709;28;20249;-58
2021/12/05 11:32:35;;;;;;;5.80;5.50;;;9.80;63.00;;;;;;5114349;28;20236;-58
2021/12/05 11:35:25;;;;;;;5.60;5.40;;;9.30;64.00;;;;;;5115477;28;20203;-58
2021/12/05 11:37:59;;;;;;;6.20;5.90;;;8.10;66.70;;;;;;5115481;28;20538;-58
2021/12/05 11:40:29;;;;;;;5.72;5.43;;;7.70;69.10;;;;;;5115441;28;20203;-58
2021/12/05 11:43:01;;;;;;;6.50;6.10;;;7.40;70.50;;;;;;5115223;28;20227;-59
2021/12/05 11:45:30;;;;;;;5.72;5.40;;;7.10;70.70;;;;;;5115325;28;20518;-58
2021/12/05 11:47:58;;;;;;;5.78;5.47;;;6.70;72.20;;;;;;5113869;28;20200;-58
2021/12/05 11:50:34;;;;;;;6.22;5.80;;;6.80;73.00;;;;;;5115335;28;20241;-59
2021/12/05 11:53:03;;;;;;;6.40;6.10;;;6.50;72.50;;;;;;5115373;28;20211;-57
2021/12/05 11:55:32;;;;;;;6.10;5.80;;;6.10;74.10;;;;;;5115281;28;20314;-57
2021/12/05 11:58:00;;;;;;;5.82;5.45;;;5.90;74.90;;;;;;5115081;28;20630;-58
2021/12/05 12:00:28;;;;;;;5.50;5.30;;;5.90;76.10;;;;;;5115140;28;20290;-59
2021/12/05 12:02:55;;;;;;;5.18;4.97;;;6.20;74.90;;;;;;5113688;28;20689;-58
2021/12/05 12:05:25;;;;;;;6.65;6.35;;;6.20;74.30;;;;;;5114967;28;20573;-58
2021/12/05 12:07:57;;;;;;;7.20;5.90;;;6.20;75.60;;;;;;5114827;28;20211;-58
2021/12/05 12:10:28;;;;;;;5.05;4.85;;;6.30;74.80;;;;;;5114757;28;20207;-59
2021/12/05 12:12:58;;;;;;;6.20;5.90;;;6.80;75.50;;;;;;5114765;28;20203;-59
2021/12/05 12:15:26;;;;;;;5.90;5.70;;;8.00;72.20;;;;;;5114719;28;20203;-57
2021/12/05 12:17:55;;;;;;;5.78;5.55;;;8.60;68.70;;;;;;5113385;28;20203;-58
2021/12/05 12:20:26;;;;;;;5.60;5.20;;;9.30;67.90;;;;;;5114460;28;20230;-58
2021/12/05 12:22:55;;;;;;;6.03;5.72;;;9.40;66.00;;;;;;5114455;28;20199;-58
2021/12/05 12:25:31;;;;;;;7.03;6.63;;;9.00;67.80;;;;;;5114460;28;20697;-59
2021/12/05 12:27:58;;;;;;;6.50;6.20;;;9.20;68.20;;;;;;5113779;28;20289;-58
2021/12/05 12:30:27;;;;;;;5.68;5.30;;;9.50;66.60;;;;;;5114459;28;20658;-58
2021/12/05 12:32:57;;;;;;;6.22;5.82;;;9.60;66.70;;;;;;5113131;28;20654;-58
2021/12/05 12:35:27;;;;;;;6.13;5.82;;;10.00;68.80;;;;;;5114283;28;20210;-58
2021/12/05 12:38:02;;;;;;;6.43;6.22;;;10.10;65.00;;;;;;5114328;28;20301;-57
2021/12/05 12:40:36;;;;;;;6.63;6.32;;;9.60;65.30;;;;;;5114202;28;20211;-57
2021/12/05 12:43:04;;;;;;;6.45;6.15;;;8.50;66.40;;;;;;5114186;28;20242;-56
2021/12/05 12:45:37;;;;;;;5.85;5.65;;;7.60;70.20;;;;;;5114059;28;20547;-57
2021/12/05 12:48:11;;;;;;;6.00;5.70;;;6.90;70.80;;;;;;5112638;28;20199;-58
2021/12/05 12:50:50;;;;;;;5.07;4.85;;;6.50;72.00;;;;;;5114157;28;20204;-58
2021/12/05 12:53:21;;;;;;;5.57;5.28;;;6.30;72.70;;;;;;5114012;28;20203;-58
2021/12/05 12:55:57;;;;;;;6.10;5.70;;;6.30;74.70;;;;;;5113922;28;20199;-58
2021/12/05 12:58:42;;;;;;;5.53;5.22;;;6.50;77.00;;;;;;5113707;28;20199;-57
2021/12/05 13:01:18;;;;;;;5.20;5.00;;;6.80;74.30;;;;;;5112442;28;20199;-55
2021/12/05 13:10:04;;;;;;;5.00;4.80;;;6.80;71.70;;;;;;5113886;28;20221;-58
2021/12/05 13:12:49;;;;;;;4.90;4.70;;;6.60;72.60;;;;;;5113666;28;20225;-57
2021/12/05 13:15:20;;;;;;;4.88;4.68;;;6.30;73.00;;;;;;5113562;28;20743;-56
2021/12/05 13:17:52;;;;;;;4.85;4.65;;;6.30;72.90;;;;;;5112229;28;20657;-58
2021/12/05 13:20:24;;;;;;;4.68;4.47;;;6.10;73.60;;;;;;5113530;28;20215;-58
2021/12/05 13:23:04;;;;;;;4.88;4.68;;;5.80;75.40;;;;;;5113548;28;20653;-58
2021/12/05 13:25:35;;;;;;;5.20;5.00;;;5.70;76.70;;;;;;5113392;28;20322;-59
2021/12/05 13:28:33;;;;;;;4.68;4.57;;;5.60;75.40;;;;;;5113602;28;20203;-57
2021/12/05 13:31:01;;;;;;;5.53;5.22;;;5.50;76.20;;;;;;5112315;27;20195;-59
2021/12/05 13:33:32;;;;;;;4.78;4.53;;;5.30;76.10;;;;;;5113503;28;20195;-58
2021/12/05 13:36:24;;;;;;;4.72;4.53;;;5.40;76.80;;;;;;5113220;28;20669;-58
2021/12/05 13:38:50;;;;;;;4.93;4.72;;;5.40;76.60;;;;;;5113051;28;20207;-56
2021/12/05 13:41:20;;;;;;;3.90;3.70;;;5.50;75.80;;;;;;5113325;28;20199;-60
2021/12/05 13:43:56;;;;;;;4.78;4.57;;;5.30;76.40;;;;;;5113217;28;20651;-57
2021/12/05 13:46:35;;;;;;;4.78;4.57;;;5.20;77.30;;;;;;5111753;28;20322;-58
2021/12/05 13:49:30;;;;;;;4.60;4.40;;;5.20;77.40;;;;;;5113282;28;20626;-58
2021/12/05 13:52:31;;;;;;;5.25;4.88;;;5.30;77.10;;;;;;5113258;28;20200;-58
2021/12/05 13:55:34;;;;;;;4.70;4.40;;;5.60;77.20;;;;;;5111528;28;20209;-58
2021/12/05 13:58:22;;;;;;;5.05;4.75;;;5.60;76.30;;;;;;5113113;28;20566;-57
2021/12/05 14:00:55;;;;;;;4.78;4.50;;;5.50;76.50;;;;;;5091624;28;20870;-58
2021/12/05 14:03:50;;;;;;;4.70;4.47;;;5.60;76.90;;;;;;5091894;28;20553;-58
2021/12/05 14:06:31;;;;;;;5.43;5.05;;;5.50;77.20;;;;;;5104273;28;20306;-60
2021/12/05 14:09:04;;;;;;;4.32;4.10;;;5.40;77.90;;;;;;5112596;28;20213;-58
2021/12/05 14:11:31;;;;;;;5.00;4.70;;;5.20;78.80;;;;;;5112198;28;20203;-58
2021/12/05 14:13:58;;;;;;;5.55;5.10;;;5.20;79.20;;;;;;5112320;28;20221;-58
2021/12/05 14:16:34;;;;;;;4.95;4.75;;;5.30;79.20;;;;;;5111073;28;20223;-58
2021/12/05 14:19:00;;;;;;;4.13;3.92;;;5.50;78.90;;;;;;5112276;28;20226;-58
2021/12/05 14:21:30;;;;;;;4.90;4.70;;;5.60;78.10;;;;;;5112095;28;20223;-58
2021/12/05 14:24:01;;;;;;;6.20;5.70;;;5.70;77.50;;;;;;5112070;28;20223;-58
2021/12/05 14:26:32;;;;;;;5.25;5.00;;;5.90;77.50;;;;;;5112229;28;20820;-58
2021/12/05 14:29:04;;;;;;;5.40;5.10;;;5.90;76.50;;;;;;5112127;28;20218;-60
2021/12/05 14:31:38;;;;;;;5.85;4.35;;;6.10;77.30;;;;;;5110870;28;20199;-58
2021/12/05 14:34:05;;;;;;;4.65;4.45;;;6.40;77.10;;;;;;5112207;28;20214;-58
2021/12/05 14:36:37;;;;;;;5.20;4.90;;;6.60;77.00;;;;;;5112137;28;20195;-58
2021/12/05 14:39:11;;;;;;;4.57;4.28;;;6.70;75.60;;;;;;5112200;28;20286;-58
2021/12/05 14:41:39;;;;;;;4.63;4.40;;;6.80;75.00;;;;;;5112048;28;20567;-60
2021/12/05 14:44:07;;;;;;;4.30;4.15;;;6.80;75.10;;;;;;5111817;28;20334;-58
2021/12/05 14:46:44;;;;;;;4.22;3.92;;;6.70;74.30;;;;;;5110452;28;20227;-57
2021/12/05 14:49:11;;;;;;;5.15;4.95;;;6.60;73.90;;;;;;5111991;28;20278;-58
2021/12/05 14:51:41;;;;;;;4.90;4.70;;;6.50;74.00;;;;;;5110204;28;20220;-56
2021/12/05 14:54:09;;;;;;;5.63;5.30;;;6.60;74.30;;;;;;5100333;28;20200;-56
2021/12/05 14:56:38;;;;;;;5.60;5.20;;;6.60;73.70;;;;;;5115577;28;20230;-57
2021/12/05 14:59:08;;;;;;;5.20;5.00;;;6.60;74.40;;;;;;5115507;28;20297;-57
2021/12/05 15:01:38;;;;;;;4.80;4.60;;;6.60;73.70;;;;;;5114522;28;20606;-58
2021/12/05 15:04:07;;;;;;;5.25;4.75;;;6.70;74.00;;;;;;5115496;28;20195;-58
2021/12/05 15:06:37;;;;;;;5.65;5.40;;;6.70;74.00;;;;;;5115553;28;20227;-57
2021/12/05 15:09:07;;;;;;;5.22;4.95;;;6.60;72.70;;;;;;5115504;28;20204;-57
2021/12/05 15:11:35;;;;;;;5.60;5.40;;;6.30;73.90;;;;;;5115278;28;20203;-58
2021/12/05 15:14:06;;;;;;;7.13;6.53;;;5.90;75.60;;;;;;5115080;27;20203;-58
2021/12/05 15:16:33;;;;;;;5.90;5.60;;;5.60;76.30;;;;;;5113943;28;20683;-58
2021/12/05 15:19:02;;;;;;;5.47;5.28;;;5.70;76.50;;;;;;5115227;28;20203;-58
2021/12/05 15:21:40;;;;;;;5.55;5.25;;;5.90;76.70;;;;;;5115158;28;20199;-56
2021/12/05 15:24:13;;;;;;;5.65;5.35;;;6.10;76.60;;;;;;5114928;28;20653;-57
2021/12/05 15:26:40;;;;;;;6.35;5.85;;;6.30;76.40;;;;;;5114932;28;20231;-56
2021/12/05 15:29:07;;;;;;;5.47;5.10;;;6.50;75.80;;;;;;5114838;28;20203;-56
2021/12/05 15:31:36;;;;;;;5.85;5.55;;;6.60;75.50;;;;;;5113539;28;20196;-56
2021/12/05 15:34:25;;;;;;;5.85;5.50;;;6.70;75.40;;;;;;5114999;28;20306;-58
2021/12/05 15:36:53;;;;;;;5.53;5.22;;;6.60;75.50;;;;;;5114453;28;20621;-56
2021/12/05 15:39:23;;;;;;;6.25;5.95;;;6.60;75.60;;;;;;5114814;28;20210;-57
2021/12/05 15:41:52;;;;;;;5.55;5.25;;;6.60;75.50;;;;;;5114728;28;20203;-57
2021/12/05 15:44:28;;;;;;;6.30;5.80;;;6.60;75.60;;;;;;5114485;28;20310;-58
2021/12/05 15:47:12;;;;;;;6.45;6.05;;;6.60;75.70;;;;;;5113264;28;20241;-58
2021/12/05 15:49:49;;;;;;;6.28;5.88;;;6.60;75.60;;;;;;5113366;28;20203;-58
2021/12/05 15:52:18;;;;;;;5.85;5.45;;;6.70;75.40;;;;;;5114541;28;20227;-58
2021/12/05 15:54:45;;;;;;;6.22;5.72;;;6.70;75.30;;;;;;5114432;28;20195;-58
2021/12/05 15:57:16;;;;;;;6.22;5.78;;;6.70;75.30;;;;;;5114239;28;20203;-56
2021/12/05 15:59:46;;;;;;;6.43;6.05;;;6.70;75.30;;;;;;5114240;28;20235;-58
2021/12/05 16:02:16;;;;;;;6.15;5.75;;;6.70;75.30;;;;;;5113038;28;20200;-56
2021/12/05 16:04:46;;;;;;;5.85;5.55;;;6.70;75.20;;;;;;5114202;28;20239;-59
2021/12/05 16:07:13;;;;;;;6.35;5.88;;;6.60;75.00;;;;;;5114037;28;20228;-58
2021/12/05 16:09:43;;;;;;;6.57;6.10;;;6.50;75.10;;;;;;5114340;28;20216;-58
2021/12/05 16:12:14;;;;;;;6.85;6.35;;;6.50;75.30;;;;;;5114091;28;20203;-57
2021/12/05 16:14:43;;;;;;;6.82;6.22;;;6.60;75.30;;;;;;5113883;28;20199;-58
2021/12/05 16:17:22;;;;;;;11.10;9.98;;;6.60;75.20;;;;;;5112732;28;20238;-58
2021/12/05 16:20:17;;;;;;;19.15;14.50;;;6.60;75.10;;;;;;5114130;28;20282;-59
2021/12/05 16:23:06;;;;;;;12.40;11.10;;;6.60;75.00;;;;;;5113764;28;20290;-58
2021/12/05 16:25:33;;;;;;;11.45;10.25;;;6.50;75.20;;;;;;5113968;28;20207;-58
2021/12/05 16:28:04;;;;;;;9.00;8.25;;;6.40;75.80;;;;;;5113882;28;20227;-58
2021/12/05 16:30:34;;;;;;;8.02;7.43;;;6.30;76.20;;;;;;5113403;28;20207;-56
2021/12/05 16:33:03;;;;;;;7.38;6.78;;;6.30;76.40;;;;;;5112740;28;20318;-57
2021/12/05 16:35:34;;;;;;;6.50;5.88;;;6.30;76.50;;;;;;5114290;28;20302;-56
2021/12/05 16:38:02;;;;;;;6.30;5.80;;;6.30;76.50;;;;;;5114229;28;20210;-56
2021/12/05 16:41:04;;;;;;;6.53;5.93;;;6.40;76.60;;;;;;5114247;28;20207;-56
2021/12/05 16:43:34;;;;;;;7.15;6.45;;;6.30;76.60;;;;;;5111342;28;20235;-58
2021/12/05 16:46:12;;;;;;;6.47;5.93;;;6.30;76.70;;;;;;5112839;28;20207;-56
2021/12/05 16:48:41;;;;;;;6.38;5.85;;;6.20;77.10;;;;;;5114041;28;20209;-56
2021/12/05 16:51:20;;;;;;;7.10;6.50;;;6.20;77.20;;;;;;5114173;28;20617;-57
2021/12/05 16:53:50;;;;;;;6.55;6.03;;;6.20;77.20;;;;;;5114122;28;20199;-55
2021/12/05 16:56:40;;;;;;;9.18;7.43;;;6.20;77.30;;;;;;5113944;28;20298;-58
2021/12/05 16:59:11;;;;;;;8.90;7.75;;;6.10;77.90;;;;;;5113869;28;20561;-56
2021/12/05 17:01:38;;;;;;;6.93;6.03;;;6.00;77.90;;;;;;5112613;28;20225;-56
2021/12/05 17:04:05;;;;;;;6.10;5.60;;;6.00;77.90;;;;;;5113828;28;20202;-55
2021/12/05 17:06:47;;;;;;;6.32;5.93;;;6.00;77.90;;;;;;5113583;28;20231;-56
2021/12/05 17:09:14;;;;;;;6.38;5.97;;;6.00;77.60;;;;;;5113771;28;20234;-55
2021/12/05 17:11:41;;;;;;;5.80;5.40;;;6.00;77.40;;;;;;5113683;28;20242;-56
2021/12/05 17:14:23;;;;;;;6.32;5.90;;;6.00;77.50;;;;;;5113311;28;20206;-57
2021/12/05 17:16:50;;;;;;;6.50;6.10;;;6.00;77.50;;;;;;5112206;28;20290;-55
2021/12/05 17:19:22;;;;;;;6.53;6.03;;;6.00;77.60;;;;;;5113710;28;20239;-56
2021/12/05 17:21:51;;;;;;;6.55;6.05;;;6.10;77.50;;;;;;5113419;28;20207;-55
2021/12/05 17:24:21;;;;;;;7.25;6.55;;;6.10;77.30;;;;;;5113487;28;20290;-55
2021/12/05 17:26:49;;;;;;;6.82;6.32;;;6.10;77.30;;;;;;5113454;28;20234;-58